sensor_id;sensor_type;location;lat;lon;timestamp;P1;durP1;ratioP1;P2;durP2;ratioP2
7879;SDS011;3985;49.366;2.738;2024-01-06T00:00:35;8.50;;;8.50;;
7879;SDS011;3985;49.366;2.738;2024-01-06T00:03:02;4.00;;;4.00;;
7879;SDS011;3985;49.366;2.738;2024-01-06T00:05:30;9.75;;;7.00;;
7879;SDS011;3985;49.366;2.738;2024-01-06T00:07:57;7.50;;;7.00;;
7879;SDS011;3985;49.366;2.738;2024-01-06T00:10:28;9.00;;;8.00;;
7879;SDS011;3985;49.366;2.738;2024-01-06T00:12:55;7.00;;;7.00;;
7879;SDS011;3985;49.366;2.738;2024-01-06T00:15:25;3.75;;;3.75;;
7879;SDS011;3985;49.366;2.738;2024-01-06T00:17:52;3.75;;;3.75;;
7879;SDS011;3985;49.366;2.738;2024-01-06T00:20:20;7.75;;;7.75;;
7879;SDS011;3985;49.366;2.738;2024-01-06T00:22:47;8.25;;;8.25;;
7879;SDS011;3985;49.366;2.738;2024-01-06T00:25:17;7.50;;;7.50;;
7879;SDS011;3985;49.366;2.738;2024-01-06T00:27:48;8.50;;;8.50;;
7879;SDS011;3985;49.366;2.738;2024-01-06T00:30:16;8.00;;;7.75;;
7879;SDS011;3985;49.366;2.738;2024-01-06T00:32:43;8.00;;;8.00;;
7879;SDS011;3985;49.366;2.738;2024-01-06T00:35:10;13.25;;;9.00;;
7879;SDS011;3985;49.366;2.738;2024-01-06T00:37:38;10.00;;;10.00;;
7879;SDS011;3985;49.366;2.738;2024-01-06T00:40:05;11.50;;;11.50;;
7879;SDS011;3985;49.366;2.738;2024-01-06T00:42:33;11.00;;;11.00;;
7879;SDS011;3985;49.366;2.738;2024-01-06T00:45:02;11.00;;;11.00;;
7879;SDS011;3985;49.366;2.738;2024-01-06T00:47:30;11.75;;;11.75;;
7879;SDS011;3985;49.366;2.738;2024-01-06T00:49:57;16.25;;;15.25;;
7879;SDS011;3985;49.366;2.738;2024-01-06T00:52:25;8.25;;;8.25;;
7879;SDS011;3985;49.366;2.738;2024-01-06T00:54:52;12.00;;;12.00;;
7879;SDS011;3985;49.366;2.738;2024-01-06T00:57:19;14.25;;;14.25;;
7879;SDS011;3985;49.366;2.738;2024-01-06T00:59:49;14.50;;;13.50;;
7879;SDS011;3985;49.366;2.738;2024-01-06T01:02:18;11.50;;;11.50;;
7879;SDS011;3985;49.366;2.738;2024-01-06T01:04:45;14.50;;;11.50;;
7879;SDS011;3985;49.366;2.738;2024-01-06T01:07:12;18.00;;;14.50;;
7879;SDS011;3985;49.366;2.738;2024-01-06T01:09:39;15.50;;;13.00;;
7879;SDS011;3985;49.366;2.738;2024-01-06T01:12:07;15.25;;;13.00;;
7879;SDS011;3985;49.366;2.738;2024-01-06T01:14:34;16.00;;;13.75;;
7879;SDS011;3985;49.366;2.738;2024-01-06T01:17:01;16.00;;;16.00;;
7879;SDS011;3985;49.366;2.738;2024-01-06T01:19:30;13.50;;;13.50;;
7879;SDS011;3985;49.366;2.738;2024-01-06T01:21:58;14.00;;;12.00;;
7879;SDS011;3985;49.366;2.738;2024-01-06T01:24:25;12.50;;;12.50;;
7879;SDS011;3985;49.366;2.738;2024-01-06T01:26:53;15.00;;;14.00;;
7879;SDS011;3985;49.366;2.738;2024-01-06T01:29:20;11.25;;;11.25;;
7879;SDS011;3985;49.366;2.738;2024-01-06T01:31:47;12.50;;;12.50;;
7879;SDS011;3985;49.366;2.738;2024-01-06T01:34:14;12.00;;;12.00;;
7879;SDS011;3985;49.366;2.738;2024-01-06T01:36:43;12.25;;;11.00;;
7879;SDS011;3985;49.366;2.738;2024-01-06T01:39:10;9.25;;;8.00;;
7879;SDS011;3985;49.366;2.738;2024-01-06T01:41:39;10.00;;;10.00;;
7879;SDS011;3985;49.366;2.738;2024-01-06T01:44:07;14.00;;;11.00;;
7879;SDS011;3985;49.366;2.738;2024-01-06T01:46:34;13.00;;;11.25;;
7879;SDS011;3985;49.366;2.738;2024-01-06T01:49:03;12.75;;;11.50;;
7879;SDS011;3985;49.366;2.738;2024-01-06T01:51:32;10.25;;;10.25;;
7879;SDS011;3985;49.366;2.738;2024-01-06T01:54:02;12.75;;;11.75;;
7879;SDS011;3985;49.366;2.738;2024-01-06T01:56:32;12.75;;;12.75;;
7879;SDS011;3985;49.366;2.738;2024-01-06T01:59:00;12.00;;;11.00;;
7879;SDS011;3985;49.366;2.738;2024-01-06T02:01:30;12.00;;;11.50;;
7879;SDS011;3985;49.366;2.738;2024-01-06T02:03:57;13.75;;;12.00;;
7879;SDS011;3985;49.366;2.738;2024-01-06T02:06:24;13.75;;;12.00;;
7879;SDS011;3985;49.366;2.738;2024-01-06T02:08:51;14.50;;;12.75;;
7879;SDS011;3985;49.366;2.738;2024-01-06T02:11:20;10.00;;;10.00;;
7879;SDS011;3985;49.366;2.738;2024-01-06T02:13:48;12.75;;;11.75;;
7879;SDS011;3985;49.366;2.738;2024-01-06T02:16:15;9.00;;;9.00;;
7879;SDS011;3985;49.366;2.738;2024-01-06T02:18:42;14.75;;;13.00;;
7879;SDS011;3985;49.366;2.738;2024-01-06T02:21:10;12.50;;;9.00;;
7879;SDS011;3985;49.366;2.738;2024-01-06T02:23:39;12.75;;;8.75;;
7879;SDS011;3985;49.366;2.738;2024-01-06T02:26:06;8.25;;;8.25;;
7879;SDS011;3985;49.366;2.738;2024-01-06T02:28:33;9.50;;;9.50;;
7879;SDS011;3985;49.366;2.738;2024-01-06T02:31:00;5.50;;;5.50;;
7879;SDS011;3985;49.366;2.738;2024-01-06T02:33:28;10.50;;;8.75;;
7879;SDS011;3985;49.366;2.738;2024-01-06T02:35:55;8.50;;;8.50;;
7879;SDS011;3985;49.366;2.738;2024-01-06T02:38:22;10.00;;;8.00;;
7879;SDS011;3985;49.366;2.738;2024-01-06T02:40:51;8.00;;;8.00;;
7879;SDS011;3985;49.366;2.738;2024-01-06T02:43:18;8.00;;;8.00;;
7879;SDS011;3985;49.366;2.738;2024-01-06T02:45:45;10.00;;;7.00;;
7879;SDS011;3985;49.366;2.738;2024-01-06T02:48:12;8.00;;;6.25;;
7879;SDS011;3985;49.366;2.738;2024-01-06T02:50:42;6.00;;;6.00;;
7879;SDS011;3985;49.366;2.738;2024-01-06T02:53:09;5.00;;;5.00;;
7879;SDS011;3985;49.366;2.738;2024-01-06T02:55:37;6.25;;;6.25;;
7879;SDS011;3985;49.366;2.738;2024-01-06T02:58:07;6.00;;;6.00;;
7879;SDS011;3985;49.366;2.738;2024-01-06T03:00:35;6.75;;;6.75;;
7879;SDS011;3985;49.366;2.738;2024-01-06T03:03:02;5.50;;;5.50;;
7879;SDS011;3985;49.366;2.738;2024-01-06T03:05:29;6.00;;;5.00;;
7879;SDS011;3985;49.366;2.738;2024-01-06T03:07:57;9.00;;;6.75;;
7879;SDS011;3985;49.366;2.738;2024-01-06T03:10:27;10.75;;;7.75;;
7879;SDS011;3985;49.366;2.738;2024-01-06T03:12:57;8.00;;;8.00;;
7879;SDS011;3985;49.366;2.738;2024-01-06T03:15:26;8.00;;;6.50;;
7879;SDS011;3985;49.366;2.738;2024-01-06T03:17:53;7.00;;;7.00;;
7879;SDS011;3985;49.366;2.738;2024-01-06T03:20:20;11.25;;;6.50;;
7879;SDS011;3985;49.366;2.738;2024-01-06T03:22:48;7.75;;;7.75;;
7879;SDS011;3985;49.366;2.738;2024-01-06T03:25:15;7.00;;;7.00;;
7879;SDS011;3985;49.366;2.738;2024-01-06T03:27:45;12.50;;;6.50;;
7879;SDS011;3985;49.366;2.738;2024-01-06T03:30:12;8.25;;;8.25;;
7879;SDS011;3985;49.366;2.738;2024-01-06T03:32:41;8.25;;;8.25;;
7879;SDS011;3985;49.366;2.738;2024-01-06T03:35:08;10.25;;;10.25;;
7879;SDS011;3985;49.366;2.738;2024-01-06T03:37:36;15.00;;;11.25;;
7879;SDS011;3985;49.366;2.738;2024-01-06T03:40:03;12.25;;;12.25;;
7879;SDS011;3985;49.366;2.738;2024-01-06T03:42:31;15.00;;;13.50;;
7879;SDS011;3985;49.366;2.738;2024-01-06T03:44:58;13.00;;;10.00;;
7879;SDS011;3985;49.366;2.738;2024-01-06T03:47:25;13.00;;;11.75;;
7879;SDS011;3985;49.366;2.738;2024-01-06T03:49:54;5.25;;;5.25;;
7879;SDS011;3985;49.366;2.738;2024-01-06T03:52:21;12.00;;;9.50;;
7879;SDS011;3985;49.366;2.738;2024-01-06T03:54:49;11.00;;;8.00;;
7879;SDS011;3985;49.366;2.738;2024-01-06T03:57:17;9.50;;;7.75;;
7879;SDS011;3985;49.366;2.738;2024-01-06T03:59:44;8.50;;;8.50;;
7879;SDS011;3985;49.366;2.738;2024-01-06T04:02:14;9.50;;;9.50;;
7879;SDS011;3985;49.366;2.738;2024-01-06T04:04:41;7.00;;;6.00;;
7879;SDS011;3985;49.366;2.738;2024-01-06T04:07:10;3.25;;;2.00;;
7879;SDS011;3985;49.366;2.738;2024-01-06T04:09:37;9.50;;;9.25;;
7879;SDS011;3985;49.366;2.738;2024-01-06T04:12:05;8.00;;;8.00;;
7879;SDS011;3985;49.366;2.738;2024-01-06T04:14:33;13.25;;;9.00;;
7879;SDS011;3985;49.366;2.738;2024-01-06T04:17:00;9.25;;;9.25;;
7879;SDS011;3985;49.366;2.738;2024-01-06T04:19:27;11.50;;;11.50;;
7879;SDS011;3985;49.366;2.738;2024-01-06T04:21:55;7.50;;;7.25;;
7879;SDS011;3985;49.366;2.738;2024-01-06T04:24:25;10.25;;;8.25;;
7879;SDS011;3985;49.366;2.738;2024-01-06T04:26:53;7.00;;;7.00;;
7879;SDS011;3985;49.366;2.738;2024-01-06T04:29:20;9.25;;;6.25;;
7879;SDS011;3985;49.366;2.738;2024-01-06T04:31:47;11.00;;;11.00;;
7879;SDS011;3985;49.366;2.738;2024-01-06T04:34:14;9.25;;;7.00;;
7879;SDS011;3985;49.366;2.738;2024-01-06T04:36:42;4.25;;;3.50;;
7879;SDS011;3985;49.366;2.738;2024-01-06T04:39:10;7.00;;;7.00;;
7879;SDS011;3985;49.366;2.738;2024-01-06T04:41:39;6.50;;;3.50;;
7879;SDS011;3985;49.366;2.738;2024-01-06T04:44:07;5.00;;;5.00;;
7879;SDS011;3985;49.366;2.738;2024-01-06T04:46:34;9.00;;;7.00;;
7879;SDS011;3985;49.366;2.738;2024-01-06T04:49:01;5.00;;;5.00;;
7879;SDS011;3985;49.366;2.738;2024-01-06T04:51:28;6.25;;;6.25;;
7879;SDS011;3985;49.366;2.738;2024-01-06T04:53:56;7.75;;;5.75;;
7879;SDS011;3985;49.366;2.738;2024-01-06T04:56:23;6.00;;;6.00;;
7879;SDS011;3985;49.366;2.738;2024-01-06T04:58:52;5.25;;;5.25;;
7879;SDS011;3985;49.366;2.738;2024-01-06T05:01:19;5.50;;;5.50;;
7879;SDS011;3985;49.366;2.738;2024-01-06T05:03:47;1.75;;;1.75;;
7879;SDS011;3985;49.366;2.738;2024-01-06T05:06:14;1.00;;;1.00;;
7879;SDS011;3985;49.366;2.738;2024-01-06T05:08:42;0.00;;;0.00;;
7879;SDS011;3985;49.366;2.738;2024-01-06T05:11:10;2.00;;;0.50;;
7879;SDS011;3985;49.366;2.738;2024-01-06T05:13:38;0.00;;;0.00;;
7879;SDS011;3985;49.366;2.738;2024-01-06T05:16:07;0.75;;;0.75;;
7879;SDS011;3985;49.366;2.738;2024-01-06T05:18:34;0.00;;;0.00;;
7879;SDS011;3985;49.366;2.738;2024-01-06T05:21:02;1.00;;;1.00;;
7879;SDS011;3985;49.366;2.738;2024-01-06T05:23:30;1.00;;;1.00;;
7879;SDS011;3985;49.366;2.738;2024-01-06T05:25:57;1.50;;;0.50;;
7879;SDS011;3985;49.366;2.738;2024-01-06T05:28:26;0.75;;;0.75;;
7879;SDS011;3985;49.366;2.738;2024-01-06T05:30:55;1.00;;;1.00;;
7879;SDS011;3985;49.366;2.738;2024-01-06T05:33:24;1.00;;;1.00;;
7879;SDS011;3985;49.366;2.738;2024-01-06T05:35:51;0.75;;;0.75;;
7879;SDS011;3985;49.366;2.738;2024-01-06T05:38:18;2.00;;;2.00;;
7879;SDS011;3985;49.366;2.738;2024-01-06T05:40:46;2.00;;;1.00;;
7879;SDS011;3985;49.366;2.738;2024-01-06T05:43:13;2.00;;;0.00;;
7879;SDS011;3985;49.366;2.738;2024-01-06T05:45:40;2.00;;;0.00;;
7879;SDS011;3985;49.366;2.738;2024-01-06T05:48:08;1.00;;;1.00;;
7879;SDS011;3985;49.366;2.738;2024-01-06T05:50:37;0.25;;;0.25;;
7879;SDS011;3985;49.366;2.738;2024-01-06T05:53:05;1.00;;;1.00;;
7879;SDS011;3985;49.366;2.738;2024-01-06T05:55:33;1.00;;;1.00;;
7879;SDS011;3985;49.366;2.738;2024-01-06T05:58:00;1.00;;;1.00;;
7879;SDS011;3985;49.366;2.738;2024-01-06T06:00:28;1.00;;;1.00;;
7879;SDS011;3985;49.366;2.738;2024-01-06T06:02:56;0.25;;;0.25;;
7879;SDS011;3985;49.366;2.738;2024-01-06T06:05:23;1.25;;;1.25;;
7879;SDS011;3985;49.366;2.738;2024-01-06T06:07:52;1.00;;;1.00;;
7879;SDS011;3985;49.366;2.738;2024-01-06T06:10:20;0.00;;;0.00;;
7879;SDS011;3985;49.366;2.738;2024-01-06T06:12:47;0.00;;;0.00;;
7879;SDS011;3985;49.366;2.738;2024-01-06T06:15:17;0.00;;;0.00;;
7879;SDS011;3985;49.366;2.738;2024-01-06T06:17:47;1.00;;;0.00;;
7879;SDS011;3985;49.366;2.738;2024-01-06T06:20:17;0.00;;;0.00;;
7879;SDS011;3985;49.366;2.738;2024-01-06T06:22:44;0.00;;;0.00;;
7879;SDS011;3985;49.366;2.738;2024-01-06T06:25:13;0.00;;;0.00;;
7879;SDS011;3985;49.366;2.738;2024-01-06T06:27:40;0.00;;;0.00;;
7879;SDS011;3985;49.366;2.738;2024-01-06T06:30:08;0.00;;;0.00;;
7879;SDS011;3985;49.366;2.738;2024-01-06T06:32:36;0.00;;;0.00;;
7879;SDS011;3985;49.366;2.738;2024-01-06T06:35:03;0.00;;;0.00;;
7879;SDS011;3985;49.366;2.738;2024-01-06T06:37:31;0.00;;;0.00;;
7879;SDS011;3985;49.366;2.738;2024-01-06T06:39:58;0.00;;;0.00;;
7879;SDS011;3985;49.366;2.738;2024-01-06T06:42:28;0.00;;;0.00;;
7879;SDS011;3985;49.366;2.738;2024-01-06T06:44:55;0.00;;;0.00;;
7879;SDS011;3985;49.366;2.738;2024-01-06T06:47:22;0.75;;;0.75;;
7879;SDS011;3985;49.366;2.738;2024-01-06T06:49:50;0.00;;;0.00;;
7879;SDS011;3985;49.366;2.738;2024-01-06T06:52:17;0.00;;;0.00;;
7879;SDS011;3985;49.366;2.738;2024-01-06T06:54:44;0.00;;;0.00;;
7879;SDS011;3985;49.366;2.738;2024-01-06T06:57:13;0.00;;;0.00;;
7879;SDS011;3985;49.366;2.738;2024-01-06T06:59:42;0.00;;;0.00;;
7879;SDS011;3985;49.366;2.738;2024-01-06T07:02:11;3.00;;;0.00;;
7879;SDS011;3985;49.366;2.738;2024-01-06T07:04:39;0.00;;;0.00;;
7879;SDS011;3985;49.366;2.738;2024-01-06T07:07:06;0.00;;;0.00;;
7879;SDS011;3985;49.366;2.738;2024-01-06T07:09:36;1.25;;;0.00;;
7879;SDS011;3985;49.366;2.738;2024-01-06T07:12:03;1.00;;;1.00;;
7879;SDS011;3985;49.366;2.738;2024-01-06T07:14:31;1.00;;;0.00;;
7879;SDS011;3985;49.366;2.738;2024-01-06T07:17:00;0.00;;;0.00;;
7879;SDS011;3985;49.366;2.738;2024-01-06T07:19:27;0.00;;;0.00;;
7879;SDS011;3985;49.366;2.738;2024-01-06T07:22:00;0.00;;;0.00;;
7879;SDS011;3985;49.366;2.738;2024-01-06T07:24:28;0.00;;;0.00;;
7879;SDS011;3985;49.366;2.738;2024-01-06T07:26:55;0.00;;;0.00;;
7879;SDS011;3985;49.366;2.738;2024-01-06T07:29:22;0.00;;;0.00;;
7879;SDS011;3985;49.366;2.738;2024-01-06T07:31:49;2.00;;;0.00;;
7879;SDS011;3985;49.366;2.738;2024-01-06T07:34:18;0.75;;;0.00;;
7879;SDS011;3985;49.366;2.738;2024-01-06T07:36:48;0.00;;;0.00;;
7879;SDS011;3985;49.366;2.738;2024-01-06T07:39:15;0.00;;;0.00;;
7879;SDS011;3985;49.366;2.738;2024-01-06T07:41:43;0.00;;;0.00;;
7879;SDS011;3985;49.366;2.738;2024-01-06T07:44:11;1.25;;;1.25;;
7879;SDS011;3985;49.366;2.738;2024-01-06T07:46:38;1.00;;;1.00;;
7879;SDS011;3985;49.366;2.738;2024-01-06T07:49:06;0.50;;;0.50;;
7879;SDS011;3985;49.366;2.738;2024-01-06T07:51:34;3.00;;;2.00;;
7879;SDS011;3985;49.366;2.738;2024-01-06T07:54:02;1.00;;;1.00;;
7879;SDS011;3985;49.366;2.738;2024-01-06T07:56:31;1.00;;;1.00;;
7879;SDS011;3985;49.366;2.738;2024-01-06T07:58:58;1.25;;;1.25;;
7879;SDS011;3985;49.366;2.738;2024-01-06T08:01:26;3.00;;;3.00;;
7879;SDS011;3985;49.366;2.738;2024-01-06T08:03:55;2.00;;;2.00;;
7879;SDS011;3985;49.366;2.738;2024-01-06T08:06:22;2.00;;;2.00;;
7879;SDS011;3985;49.366;2.738;2024-01-06T08:08:51;3.50;;;2.00;;
7879;SDS011;3985;49.366;2.738;2024-01-06T08:11:19;4.00;;;2.50;;
7879;SDS011;3985;49.366;2.738;2024-01-06T08:13:47;1.00;;;1.00;;
7879;SDS011;3985;49.366;2.738;2024-01-06T08:16:14;0.25;;;0.25;;
7879;SDS011;3985;49.366;2.738;2024-01-06T08:18:42;3.00;;;3.00;;
7879;SDS011;3985;49.366;2.738;2024-01-06T08:21:10;2.00;;;1.50;;
7879;SDS011;3985;49.366;2.738;2024-01-06T08:23:37;0.75;;;0.75;;
7879;SDS011;3985;49.366;2.738;2024-01-06T08:26:06;2.50;;;1.25;;
7879;SDS011;3985;49.366;2.738;2024-01-06T08:28:33;4.00;;;1.00;;
7879;SDS011;3985;49.366;2.738;2024-01-06T08:31:00;1.00;;;1.00;;
7879;SDS011;3985;49.366;2.738;2024-01-06T08:33:30;1.50;;;1.50;;
7879;SDS011;3985;49.366;2.738;2024-01-06T08:35:57;5.75;;;2.00;;
7879;SDS011;3985;49.366;2.738;2024-01-06T08:38:25;2.00;;;2.00;;
7879;SDS011;3985;49.366;2.738;2024-01-06T08:40:52;1.00;;;1.00;;
7879;SDS011;3985;49.366;2.738;2024-01-06T08:43:21;1.00;;;1.00;;
7879;SDS011;3985;49.366;2.738;2024-01-06T08:45:50;1.25;;;1.25;;
7879;SDS011;3985;49.366;2.738;2024-01-06T08:48:17;1.00;;;1.00;;
7879;SDS011;3985;49.366;2.738;2024-01-06T08:50:45;1.75;;;1.75;;
7879;SDS011;3985;49.366;2.738;2024-01-06T08:53:12;1.75;;;1.00;;
7879;SDS011;3985;49.366;2.738;2024-01-06T08:55:42;1.50;;;1.50;;
7879;SDS011;3985;49.366;2.738;2024-01-06T08:58:09;1.00;;;1.00;;
7879;SDS011;3985;49.366;2.738;2024-01-06T09:00:37;3.50;;;1.00;;
7879;SDS011;3985;49.366;2.738;2024-01-06T09:03:05;1.00;;;1.00;;
7879;SDS011;3985;49.366;2.738;2024-01-06T09:05:32;2.00;;;0.75;;
7879;SDS011;3985;49.366;2.738;2024-01-06T09:08:02;0.00;;;0.00;;
7879;SDS011;3985;49.366;2.738;2024-01-06T09:10:30;0.00;;;0.00;;
7879;SDS011;3985;49.366;2.738;2024-01-06T09:12:57;0.00;;;0.00;;
7879;SDS011;3985;49.366;2.738;2024-01-06T09:15:25;0.00;;;0.00;;
7879;SDS011;3985;49.366;2.738;2024-01-06T09:17:53;0.00;;;0.00;;
7879;SDS011;3985;49.366;2.738;2024-01-06T09:20:23;0.00;;;0.00;;
7879;SDS011;3985;49.366;2.738;2024-01-06T09:22:50;0.00;;;0.00;;
7879;SDS011;3985;49.366;2.738;2024-01-06T09:25:18;1.00;;;0.00;;
7879;SDS011;3985;49.366;2.738;2024-01-06T09:27:48;0.00;;;0.00;;
7879;SDS011;3985;49.366;2.738;2024-01-06T09:30:16;0.00;;;0.00;;
7879;SDS011;3985;49.366;2.738;2024-01-06T09:32:43;0.00;;;0.00;;
7879;SDS011;3985;49.366;2.738;2024-01-06T09:35:12;0.00;;;0.00;;
7879;SDS011;3985;49.366;2.738;2024-01-06T09:37:42;0.00;;;0.00;;
7879;SDS011;3985;49.366;2.738;2024-01-06T09:40:11;0.00;;;0.00;;
7879;SDS011;3985;49.366;2.738;2024-01-06T09:42:39;1.50;;;0.00;;
7879;SDS011;3985;49.366;2.738;2024-01-06T09:45:07;0.00;;;0.00;;
7879;SDS011;3985;49.366;2.738;2024-01-06T09:47:34;0.00;;;0.00;;
7879;SDS011;3985;49.366;2.738;2024-01-06T09:50:03;0.00;;;0.00;;
7879;SDS011;3985;49.366;2.738;2024-01-06T09:52:32;0.00;;;0.00;;
7879;SDS011;3985;49.366;2.738;2024-01-06T09:55:00;0.00;;;0.00;;
7879;SDS011;3985;49.366;2.738;2024-01-06T09:57:30;0.00;;;0.00;;
7879;SDS011;3985;49.366;2.738;2024-01-06T09:59:59;0.00;;;0.00;;
7879;SDS011;3985;49.366;2.738;2024-01-06T10:02:26;0.00;;;0.00;;
7879;SDS011;3985;49.366;2.738;2024-01-06T10:04:56;0.00;;;0.00;;
7879;SDS011;3985;49.366;2.738;2024-01-06T10:07:25;1.00;;;1.00;;
7879;SDS011;3985;49.366;2.738;2024-01-06T10:09:55;1.00;;;0.00;;
7879;SDS011;3985;49.366;2.738;2024-01-06T10:12:23;0.00;;;0.00;;
7879;SDS011;3985;49.366;2.738;2024-01-06T10:14:53;0.00;;;0.00;;
7879;SDS011;3985;49.366;2.738;2024-01-06T10:17:20;0.00;;;0.00;;
7879;SDS011;3985;49.366;2.738;2024-01-06T10:19:48;0.00;;;0.00;;
7879;SDS011;3985;49.366;2.738;2024-01-06T10:22:17;0.00;;;0.00;;
7879;SDS011;3985;49.366;2.738;2024-01-06T10:24:45;0.00;;;0.00;;
7879;SDS011;3985;49.366;2.738;2024-01-06T10:27:14;2.00;;;0.00;;
7879;SDS011;3985;49.366;2.738;2024-01-06T10:29:41;0.00;;;0.00;;
7879;SDS011;3985;49.366;2.738;2024-01-06T10:32:08;0.00;;;0.00;;
7879;SDS011;3985;49.366;2.738;2024-01-06T10:34:36;0.00;;;0.00;;
7879;SDS011;3985;49.366;2.738;2024-01-06T10:37:03;0.00;;;0.00;;
7879;SDS011;3985;49.366;2.738;2024-01-06T10:39:31;0.00;;;0.00;;
7879;SDS011;3985;49.366;2.738;2024-01-06T10:41:58;0.25;;;0.25;;
7879;SDS011;3985;49.366;2.738;2024-01-06T10:44:30;0.00;;;0.00;;
7879;SDS011;3985;49.366;2.738;2024-01-06T10:46:58;0.00;;;0.00;;
7879;SDS011;3985;49.366;2.738;2024-01-06T10:49:26;0.00;;;0.00;;
7879;SDS011;3985;49.366;2.738;2024-01-06T10:51:55;1.00;;;0.00;;
7879;SDS011;3985;49.366;2.738;2024-01-06T10:54:23;1.00;;;1.00;;
7879;SDS011;3985;49.366;2.738;2024-01-06T10:56:51;0.00;;;0.00;;
7879;SDS011;3985;49.366;2.738;2024-01-06T10:59:19;3.00;;;2.00;;
7879;SDS011;3985;49.366;2.738;2024-01-06T11:01:51;0.00;;;0.00;;
7879;SDS011;3985;49.366;2.738;2024-01-06T11:04:19;0.00;;;0.00;;
7879;SDS011;3985;49.366;2.738;2024-01-06T11:06:47;0.00;;;0.00;;
7879;SDS011;3985;49.366;2.738;2024-01-06T11:09:16;1.00;;;0.00;;
7879;SDS011;3985;49.366;2.738;2024-01-06T11:11:47;1.50;;;0.00;;
7879;SDS011;3985;49.366;2.738;2024-01-06T11:14:17;1.00;;;1.00;;
7879;SDS011;3985;49.366;2.738;2024-01-06T11:16:45;1.00;;;1.00;;
7879;SDS011;3985;49.366;2.738;2024-01-06T11:22:20;0.00;;;0.00;;
7879;SDS011;3985;49.366;2.738;2024-01-06T11:24:50;2.75;;;2.00;;
7879;SDS011;3985;49.366;2.738;2024-01-06T11:27:18;2.00;;;2.00;;
7879;SDS011;3985;49.366;2.738;2024-01-06T11:29:45;0.00;;;0.00;;
7879;SDS011;3985;49.366;2.738;2024-01-06T11:32:16;0.00;;;0.00;;
7879;SDS011;3985;49.366;2.738;2024-01-06T11:34:48;0.75;;;0.75;;
7879;SDS011;3985;49.366;2.738;2024-01-06T11:37:23;1.00;;;0.00;;
7879;SDS011;3985;49.366;2.738;2024-01-06T11:39:51;0.50;;;0.50;;
7879;SDS011;3985;49.366;2.738;2024-01-06T11:42:19;0.00;;;0.00;;
7879;SDS011;3985;49.366;2.738;2024-01-06T11:44:50;0.00;;;0.00;;
7879;SDS011;3985;49.366;2.738;2024-01-06T11:47:17;0.00;;;0.00;;
7879;SDS011;3985;49.366;2.738;2024-01-06T11:49:51;4.50;;;3.00;;
7879;SDS011;3985;49.366;2.738;2024-01-06T11:52:20;0.00;;;0.00;;
7879;SDS011;3985;49.366;2.738;2024-01-06T11:54:48;0.00;;;0.00;;
7879;SDS011;3985;49.366;2.738;2024-01-06T11:57:16;0.50;;;0.50;;
7879;SDS011;3985;49.366;2.738;2024-01-06T11:59:43;1.00;;;1.00;;
7879;SDS011;3985;49.366;2.738;2024-01-06T12:02:10;1.00;;;1.00;;
7879;SDS011;3985;49.366;2.738;2024-01-06T12:04:38;1.00;;;1.00;;
7879;SDS011;3985;49.366;2.738;2024-01-06T12:07:08;1.50;;;1.50;;
7879;SDS011;3985;49.366;2.738;2024-01-06T12:09:38;3.25;;;2.50;;
7879;SDS011;3985;49.366;2.738;2024-01-06T12:12:05;3.00;;;2.00;;
7879;SDS011;3985;49.366;2.738;2024-01-06T12:14:34;2.75;;;2.75;;
7879;SDS011;3985;49.366;2.738;2024-01-06T12:17:03;1.50;;;1.25;;
7879;SDS011;3985;49.366;2.738;2024-01-06T12:19:31;1.00;;;1.00;;
7879;SDS011;3985;49.366;2.738;2024-01-06T12:21:59;1.00;;;1.00;;
7879;SDS011;3985;49.366;2.738;2024-01-06T12:24:31;1.50;;;0.25;;
7879;SDS011;3985;49.366;2.738;2024-01-06T12:26:59;7.00;;;7.00;;
7879;SDS011;3985;49.366;2.738;2024-01-06T12:29:29;6.50;;;6.50;;
7879;SDS011;3985;49.366;2.738;2024-01-06T12:31:58;22.75;;;22.75;;
7879;SDS011;3985;49.366;2.738;2024-01-06T12:34:25;5.50;;;5.50;;
7879;SDS011;3985;49.366;2.738;2024-01-06T12:36:53;14.00;;;13.75;;
7879;SDS011;3985;49.366;2.738;2024-01-06T12:39:21;9.50;;;7.25;;
7879;SDS011;3985;49.366;2.738;2024-01-06T12:41:51;6.75;;;6.00;;
7879;SDS011;3985;49.366;2.738;2024-01-06T12:44:18;2.00;;;2.00;;
7879;SDS011;3985;49.366;2.738;2024-01-06T12:46:46;3.75;;;2.25;;
7879;SDS011;3985;49.366;2.738;2024-01-06T12:49:14;1.00;;;1.00;;
7879;SDS011;3985;49.366;2.738;2024-01-06T12:51:41;1.00;;;1.00;;
7879;SDS011;3985;49.366;2.738;2024-01-06T12:54:09;2.00;;;2.00;;
7879;SDS011;3985;49.366;2.738;2024-01-06T12:56:36;0.00;;;0.00;;
7879;SDS011;3985;49.366;2.738;2024-01-06T12:59:05;0.75;;;0.75;;
7879;SDS011;3985;49.366;2.738;2024-01-06T13:01:32;0.00;;;0.00;;
7879;SDS011;3985;49.366;2.738;2024-01-06T13:03:59;4.00;;;2.50;;
7879;SDS011;3985;49.366;2.738;2024-01-06T13:06:29;1.00;;;1.00;;
7879;SDS011;3985;49.366;2.738;2024-01-06T13:08:56;1.00;;;1.00;;
7879;SDS011;3985;49.366;2.738;2024-01-06T13:11:30;0.00;;;0.00;;
7879;SDS011;3985;49.366;2.738;2024-01-06T13:13:57;2.75;;;2.75;;
7879;SDS011;3985;49.366;2.738;2024-01-06T13:16:26;11.25;;;9.75;;
7879;SDS011;3985;49.366;2.738;2024-01-06T13:18:54;22.50;;;22.50;;
7879;SDS011;3985;49.366;2.738;2024-01-06T13:21:21;4.00;;;2.25;;
7879;SDS011;3985;49.366;2.738;2024-01-06T13:23:49;24.00;;;24.00;;
7879;SDS011;3985;49.366;2.738;2024-01-06T13:26:16;26.75;;;25.75;;
7879;SDS011;3985;49.366;2.738;2024-01-06T13:28:43;28.50;;;28.50;;
7879;SDS011;3985;49.366;2.738;2024-01-06T13:31:11;14.00;;;14.00;;
7879;SDS011;3985;49.366;2.738;2024-01-06T13:33:39;9.50;;;9.50;;
7879;SDS011;3985;49.366;2.738;2024-01-06T13:36:07;8.00;;;8.00;;
7879;SDS011;3985;49.366;2.738;2024-01-06T13:38:34;6.25;;;5.00;;
7879;SDS011;3985;49.366;2.738;2024-01-06T13:41:04;10.50;;;10.50;;
7879;SDS011;3985;49.366;2.738;2024-01-06T13:43:32;1.25;;;1.25;;
7879;SDS011;3985;49.366;2.738;2024-01-06T13:45:59;1.00;;;1.00;;
7879;SDS011;3985;49.366;2.738;2024-01-06T13:48:30;1.00;;;1.00;;
7879;SDS011;3985;49.366;2.738;2024-01-06T13:50:59;6.50;;;6.50;;
7879;SDS011;3985;49.366;2.738;2024-01-06T13:53:26;1.50;;;1.50;;
7879;SDS011;3985;49.366;2.738;2024-01-06T13:55:56;1.25;;;1.25;;
7879;SDS011;3985;49.366;2.738;2024-01-06T13:58:27;1.00;;;1.00;;
7879;SDS011;3985;49.366;2.738;2024-01-06T14:00:55;4.00;;;4.00;;
7879;SDS011;3985;49.366;2.738;2024-01-06T14:03:22;0.25;;;0.25;;
7879;SDS011;3985;49.366;2.738;2024-01-06T14:05:49;1.75;;;1.75;;
7879;SDS011;3985;49.366;2.738;2024-01-06T14:08:20;2.75;;;2.75;;
7879;SDS011;3985;49.366;2.738;2024-01-06T14:10:47;5.00;;;5.00;;
7879;SDS011;3985;49.366;2.738;2024-01-06T14:13:14;5.25;;;3.00;;
7879;SDS011;3985;49.366;2.738;2024-01-06T14:15:41;8.25;;;6.00;;
7879;SDS011;3985;49.366;2.738;2024-01-06T14:18:09;6.25;;;5.50;;
7879;SDS011;3985;49.366;2.738;2024-01-06T14:20:37;1.00;;;1.00;;
7879;SDS011;3985;49.366;2.738;2024-01-06T14:23:05;1.00;;;1.00;;
7879;SDS011;3985;49.366;2.738;2024-01-06T14:25:36;2.50;;;2.00;;
7879;SDS011;3985;49.366;2.738;2024-01-06T14:28:03;3.75;;;2.50;;
7879;SDS011;3985;49.366;2.738;2024-01-06T14:30:32;2.75;;;2.75;;
7879;SDS011;3985;49.366;2.738;2024-01-06T14:32:59;1.00;;;1.00;;
7879;SDS011;3985;49.366;2.738;2024-01-06T14:35:26;1.00;;;1.00;;
7879;SDS011;3985;49.366;2.738;2024-01-06T14:37:54;1.00;;;1.00;;
7879;SDS011;3985;49.366;2.738;2024-01-06T14:40:23;1.00;;;1.00;;
7879;SDS011;3985;49.366;2.738;2024-01-06T14:42:51;3.75;;;3.75;;
7879;SDS011;3985;49.366;2.738;2024-01-06T14:45:19;6.75;;;6.75;;
7879;SDS011;3985;49.366;2.738;2024-01-06T14:47:47;1.50;;;1.50;;
7879;SDS011;3985;49.366;2.738;2024-01-06T14:50:16;1.00;;;1.00;;
7879;SDS011;3985;49.366;2.738;2024-01-06T14:52:43;1.50;;;1.50;;
7879;SDS011;3985;49.366;2.738;2024-01-06T14:55:10;4.50;;;4.50;;
7879;SDS011;3985;49.366;2.738;2024-01-06T14:57:37;5.25;;;5.25;;
7879;SDS011;3985;49.366;2.738;2024-01-06T15:00:06;2.00;;;2.00;;
7879;SDS011;3985;49.366;2.738;2024-01-06T15:02:37;2.00;;;2.00;;
7879;SDS011;3985;49.366;2.738;2024-01-06T15:05:06;0.25;;;0.25;;
7879;SDS011;3985;49.366;2.738;2024-01-06T15:07:34;2.00;;;2.00;;
7879;SDS011;3985;49.366;2.738;2024-01-06T15:10:01;2.50;;;2.50;;
7879;SDS011;3985;49.366;2.738;2024-01-06T15:12:30;6.75;;;6.75;;
7879;SDS011;3985;49.366;2.738;2024-01-06T15:14:57;4.00;;;4.00;;
7879;SDS011;3985;49.366;2.738;2024-01-06T15:17:26;7.25;;;7.25;;